Pagrindinis puslapis
METAR-TAF:

METAR-TAF

Oro uostai :

Sočis, Rusija

platuma: 43-26N, ilguma: 039-54E, Aukštis: 16 m

Dabartinis oras

Ataskaita buvo paskelbta 35 minutes, ne 05:30 UTC
Vėjas 10 kt iš Šiaurės Rytų
Temperatūra 5°C
Drėgmė 75%
Slėgis 1019 hPa
Matomumas 10 km arba daugiau
Mažai debesys ne aukštis 10000 ft

METAR: URSS 100530Z 05005MPS 9999 FEW100 05/01 Q1019 R02/010070 R06/010070 NOSIG RMK R06/06004MPS QFE763

Laikas: 10:05 (06:05 UTC)

Prognozė

Ataskaita buvo paskelbta 1 valandą ir 10 minutes, ne 04:55 UTC
Prognozė galioja nuo 10 metu 06 UTC su 11 metu 06 UTC
Vėjas 10 kt iš Šiaurės Rytų
Matomumas 10 km arba daugiau
Mažai debesys ne aukštis 3000 ft
Išsisklaidę debesys ne aukštis 10000 ft
Tapsmas
nuo 10 metu 09 UTC su 10 metu 10 UTC
Vėjas 2 kt nuo kintamojo kryptimis
Tapsmas
nuo 10 metu 14 UTC su 10 metu 15 UTC
Vėjas 12 kt iš Šiaurės Rytų

TAF: URSS 100455Z 1006/1106 04005MPS 9999 FEW030 SCT100 BECMG 1009/1010 VRB01MPS BECMG 1014/1015 05006MPS NSC

Orai ataskaitas ir orų prognozės (METAR, TAF).

turimą stotys yra geltonos ir raudonos taškus žemėlapyje.

Perkelti pele per norėdami pamatyti stoties vardą.

Tada spustelėkite, norėdami matyti oro stebėjimo ir prognozės.

Norėdami pakeisti žemėlapį: spustelėkite ant žalios mygtukų su juodo kryžiaus žemyn,; žalią mygtuką su brūkšneliu, jei norite nutolinti; arba žalių rodyklių gretimoms žemėlapius.


METAR-TAF: